Time;durP1;ratioP1;P1;durP2;ratioP2;P2;SDS_P1;SDS_P2;PMS_P1;PMS_P2;Temp;Humidity;BMP_temperature;BMP_pressure;BME280_temperature;BME280_humidity;BME280_pressure;Samples;Min_cycle;Max_cycle;Signal;HPM_P1;HPM_P2
2022/01/13 07:59:00;;;;;;;36.67;20.65;;;;;;;2.19;99.15;103975.16;5297550;28;20772;-78
2022/01/13 08:01:31;;;;;;;50.58;24.80;;;;;;;2.11;99.28;103981.41;5267979;28;20031;-78
2022/01/13 08:04:02;;;;;;;53.95;21.15;;;;;;;2.11;98.98;103981.41;5282696;28;20029;-79
2022/01/13 08:06:33;;;;;;;38.65;20.05;;;;;;;2.26;100.00;103983.63;5276226;28;20070;-75
2022/01/13 08:09:05;;;;;;;54.30;24.00;;;;;;;2.22;100.00;103994.00;5292859;28;20056;-75
2022/01/13 08:11:36;;;;;;;34.47;20.73;;;;;;;2.32;100.00;103985.72;5273792;28;20020;-73
2022/01/13 08:14:07;;;;;;;48.22;20.92;;;;;;;2.23;100.00;103992.16;5288825;28;20035;-76
2022/01/13 08:16:43;;;;;;;43.53;22.45;;;;;;;2.30;100.00;103990.47;5264513;28;20033;-76
2022/01/13 08:22:06;;;;;;;40.30;21.48;;;;;;;2.39;99.79;103995.03;5264271;28;20048;-76
2022/01/13 08:24:37;;;;;;;40.10;22.50;;;;;;;2.41;99.81;103993.00;5282409;28;20017;-76
2022/01/13 08:27:09;;;;;;;46.50;21.98;;;;;;;2.43;98.83;103990.97;5287326;28;20491;-76
2022/01/13 08:29:40;;;;;;;37.13;19.25;;;;;;;2.56;99.69;103991.41;5287906;28;20067;-77
2022/01/13 08:32:13;;;;;;;39.95;20.85;;;;;;;2.53;98.79;104001.81;5283952;28;20017;-78
2022/01/13 08:34:45;;;;;;;41.88;20.90;;;;;;;2.48;98.79;104005.03;5295709;28;20029;-77
2022/01/13 08:37:17;;;;;;;54.33;20.80;;;;;;;2.47;98.48;104000.56;5287663;28;20021;-79
2022/01/13 08:39:48;;;;;;;37.30;20.15;;;;;;;2.60;98.31;104003.75;5285459;28;20112;-78
2022/01/13 08:42:20;;;;;;;43.65;21.30;;;;;;;2.62;98.34;104000.84;5270638;28;20020;-78
2022/01/13 08:44:51;;;;;;;37.30;20.70;;;;;;;2.71;98.13;104004.50;5299901;28;20081;-77
2022/01/13 08:47:22;;;;;;;37.75;20.70;;;;;;;2.66;97.67;104006.88;5279532;28;20396;-77
2022/01/13 08:49:53;;;;;;;36.30;20.08;;;;;;;2.73;97.86;104000.59;5290197;28;20025;-77
2022/01/13 08:52:25;;;;;;;34.35;20.42;;;;;;;2.86;98.39;104011.13;5286110;28;20380;-78
2022/01/13 08:54:56;;;;;;;41.58;21.80;;;;;;;2.73;97.58;104007.94;5275096;28;20112;-75
2022/01/13 08:57:28;;;;;;;32.30;20.60;;;;;;;2.73;97.72;104011.53;5275987;28;20048;-76
2022/01/13 08:59:59;;;;;;;38.42;22.00;;;;;;;2.84;97.80;104015.94;5288409;28;20392;-75
2022/01/13 09:02:33;;;;;;;46.25;20.67;;;;;;;2.86;97.80;104021.25;5284932;28;20502;-73
2022/01/13 09:05:05;;;;;;;55.45;20.73;;;;;;;2.72;96.95;104025.44;5288824;28;20029;-74
2022/01/13 09:07:36;;;;;;;39.08;22.02;;;;;;;2.89;98.24;104031.88;5272711;28;20036;-74
2022/01/13 09:10:08;;;;;;;38.97;19.95;;;;;;;2.88;97.77;104028.28;5264163;28;20468;-74
2022/01/13 09:12:40;;;;;;;37.28;19.58;;;;;;;2.91;98.05;104025.22;5254219;28;20028;-79
2022/01/13 09:15:16;;;;;;;34.15;18.77;;;;;;;2.95;97.03;104023.03;5266854;28;20024;-77
2022/01/13 09:17:51;;;;;;;;;;;;;;;3.09;97.88;104027.03;5251331;28;20049;-77
2022/01/13 09:20:22;;;;;;;46.85;19.15;;;;;;;2.88;97.17;104027.44;5269941;28;20012;-78
2022/01/13 09:22:55;;;;;;;39.83;19.73;;;;;;;2.95;96.89;104036.72;5284020;28;20036;-78
2022/01/13 09:25:26;;;;;;;46.80;19.92;;;;;;;2.95;97.10;104028.50;5270550;28;20028;-77
2022/01/13 09:27:57;;;;;;;47.45;20.48;;;;;;;2.93;97.29;104034.13;5270198;28;20502;-78
2022/01/13 09:30:29;;;;;;;35.05;20.13;;;;;;;3.07;97.71;104034.56;5259588;28;20045;-76
2022/01/13 09:33:00;;;;;;;42.83;19.88;;;;;;;3.03;96.74;104037.63;5259466;28;20041;-75
2022/01/13 09:35:32;;;;;;;45.60;22.67;;;;;;;3.03;97.24;104036.78;5270936;28;21854;-75
2022/01/13 09:38:03;;;;;;;38.53;19.35;;;;;;;3.00;96.46;104043.44;5261099;28;20056;-74
2022/01/13 09:40:35;;;;;;;39.28;20.80;;;;;;;3.01;96.35;104044.31;5252946;28;20482;-76
2022/01/13 09:43:06;;;;;;;37.22;20.10;;;;;;;3.04;96.95;104039.38;5284519;28;20028;-79
2022/01/13 09:45:40;;;;;;;33.25;19.17;;;;;;;3.07;96.73;104035.44;5267581;28;20104;-79
2022/01/13 09:48:11;;;;;;;48.10;20.73;;;;;;;2.97;96.59;104032.81;5259728;28;20025;-79
2022/01/13 09:50:46;;;;;;;43.00;19.95;;;;;;;3.00;97.05;104037.13;5273471;28;20029;-79
2022/01/13 09:53:17;;;;;;;53.05;22.02;;;;;;;2.92;96.73;104026.09;5251596;28;20178;-80
2022/01/13 09:55:49;;;;;;;50.72;21.25;;;;;;;2.86;96.99;104034.94;5272321;28;20112;-75
2022/01/13 09:58:20;;;;;;;94.78;19.90;;;;;;;2.73;96.96;104032.63;5281689;28;20055;-74
2022/01/13 10:00:51;;;;;;;43.90;21.35;;;;;;;2.88;97.82;104035.66;5267929;28;20037;-77
2022/01/13 10:03:27;;;;;;;40.10;21.20;;;;;;;2.93;97.58;104036.88;5275262;28;20025;-77
2022/01/13 10:06:07;;;;;;;42.13;20.17;;;;;;;2.93;98.00;104025.91;5263740;28;20031;-76
2022/01/13 10:08:59;;;;;;;35.53;21.00;;;;;;;3.01;98.31;104038.81;5278340;28;20033;-75
2022/01/13 10:11:40;;;;;;;69.70;19.70;;;;;;;2.93;97.70;104030.53;5255508;28;20035;-75
2022/01/13 10:16:23;;;;;;;32.50;18.67;;;;;;;3.00;98.14;104037.97;5272144;28;20108;-71
2022/01/13 10:17:18;;;;;;;37.10;19.38;;;;;;;3.05;97.95;104035.59;5279132;28;20033;-79
2022/01/13 10:19:50;;;;;;;59.17;20.38;;;;;;;2.94;96.99;104027.66;5270109;28;20032;-79
2022/01/13 10:22:31;;;;;;;39.90;19.23;;;;;;;3.07;97.79;104032.72;5250428;28;20092;-73
2022/01/13 10:25:03;;;;;;;51.10;20.00;;;;;;;3.05;97.34;104035.59;5260572;28;20025;-73
2022/01/13 10:27:36;;;;;;;38.97;17.77;;;;;;;3.10;97.64;104031.53;5256621;28;20499;-72
2022/01/13 10:30:17;;;;;;;36.10;19.17;;;;;;;3.16;97.27;104036.34;5271836;28;20056;-78
2022/01/13 10:32:49;;;;;;;33.88;18.42;;;;;;;3.16;97.45;104028.13;5280276;28;20108;-79
2022/01/13 10:35:21;;;;;;;36.90;19.77;;;;;;;3.20;97.62;104035.00;5255517;28;20046;-77
2022/01/13 10:37:58;;;;;;;40.22;20.20;;;;;;;3.12;97.16;104041.31;5268216;28;20116;-78
2022/01/13 10:40:34;;;;;;;35.88;18.65;;;;;;;3.16;96.77;104031.72;5264201;28;20021;-79
2022/01/13 10:43:09;;;;;;;31.88;17.98;;;;;;;3.23;96.96;104037.44;5256213;28;20372;-79
2022/01/13 10:45:44;;;;;;;53.15;18.88;;;;;;;3.09;96.24;104038.88;5270229;28;20295;-79
2022/01/13 10:48:22;;;;;;;65.68;19.52;;;;;;;2.95;96.12;104034.84;5262648;28;20447;-78
2022/01/13 10:51:02;;;;;;;37.83;19.17;;;;;;;2.97;97.81;104032.81;5262615;28;20411;-78
2022/01/13 10:53:37;;;;;;;38.03;20.10;;;;;;;3.01;97.58;104028.72;5265123;28;20095;-78
2022/01/13 10:56:11;;;;;;;52.00;18.35;;;;;;;3.02;97.92;104030.44;5257672;28;20037;-76
2022/01/13 10:58:52;;;;;;;41.30;22.08;;;;;;;3.14;97.58;104024.69;5278481;28;20056;-79
2022/01/13 11:01:33;;;;;;;53.25;17.70;;;;;;;3.15;97.00;104020.94;5252489;28;20025;-79
2022/01/13 11:04:15;;;;;;;37.08;17.08;;;;;;;3.15;96.85;104018.19;5258773;28;20056;-75
2022/01/13 11:06:46;;;;;;;36.08;18.67;;;;;;;3.13;97.72;104009.25;5278517;28;20025;-73
2022/01/13 11:09:18;;;;;;;31.95;18.25;;;;;;;3.08;97.25;104003.41;5281217;28;20073;-75
2022/01/13 11:11:57;;;;;;;36.33;19.67;;;;;;;3.13;97.39;104006.50;5266749;28;20473;-75
2022/01/13 11:14:28;;;;;;;37.58;21.02;;;;;;;3.22;97.41;104006.41;5255955;28;20439;-74
2022/01/13 11:17:00;;;;;;;53.75;19.48;;;;;;;3.09;96.80;104005.09;5267814;28;20104;-78
2022/01/13 11:19:32;;;;;;;44.95;19.05;;;;;;;3.02;96.44;104003.03;5278789;28;20476;-79
2022/01/13 11:22:04;;;;;;;30.35;19.27;;;;;;;3.19;97.32;103994.88;5274136;28;20099;-76
2022/01/13 11:24:38;;;;;;;34.58;18.92;;;;;;;3.13;97.64;103992.78;5258082;28;20116;-79
2022/01/13 11:27:11;;;;;;;37.15;17.98;;;;;;;3.19;97.60;103992.97;5265818;28;20033;-77
2022/01/13 11:29:42;;;;;;;38.58;19.67;;;;;;;3.15;96.96;103985.28;5252067;28;20029;-74
2022/01/13 11:32:17;;;;;;;34.53;20.50;;;;;;;3.22;96.95;103984.44;5258004;28;20032;-76
2022/01/13 11:34:49;;;;;;;38.72;19.05;;;;;;;3.23;97.34;103980.69;5259403;28;20021;-74
2022/01/13 11:37:26;;;;;;;28.55;18.15;;;;;;;3.34;97.67;103979.50;5250274;28;20040;-75
2022/01/13 11:39:58;;;;;;;34.88;19.10;;;;;;;3.35;96.85;103974.88;5252783;28;20114;-75
2022/01/13 11:42:29;;;;;;;37.38;18.00;;;;;;;3.34;96.19;103979.50;5241625;28;20059;-74
2022/01/13 11:45:16;;;;;;;37.40;18.50;;;;;;;3.42;96.40;103982.28;5244228;28;20017;-76
2022/01/13 11:47:48;;;;;;;34.42;17.85;;;;;;;3.39;96.69;103985.38;5240858;28;20037;-75
2022/01/13 11:50:31;;;;;;;34.42;19.63;;;;;;;3.43;95.94;103983.19;5242217;28;20097;-77
2022/01/13 11:53:19;;;;;;;32.63;19.52;;;;;;;3.54;96.46;103988.34;5255286;28;20396;-77
2022/01/13 11:55:56;;;;;;;33.40;18.73;;;;;;;3.45;96.30;103989.34;5260423;28;20021;-77
2022/01/13 11:58:32;;;;;;;33.55;18.15;;;;;;;3.54;96.79;103984.75;5255268;28;20048;-77
2022/01/13 12:01:17;;;;;;;;;;;;;;;3.64;95.97;103974.50;5240363;28;20025;-79
2022/01/13 12:03:56;;;;;;;45.95;24.83;;;;;;;3.43;96.32;103980.44;5242143;28;19917;-80
2022/01/13 12:06:48;;;;;;;35.63;19.42;;;;;;;3.37;96.35;103968.22;5241575;28;20116;-80
2022/01/13 12:09:31;;;;;;;30.42;17.70;;;;;;;3.35;97.04;103964.78;5241358;28;20026;-79
2022/01/13 12:12:03;;;;;;;38.97;20.23;;;;;;;3.37;96.94;103962.72;5257456;28;20033;-76
2022/01/13 12:14:39;;;;;;;37.95;17.25;;;;;;;3.29;96.64;103965.44;5251528;28;20021;-78
2022/01/13 12:17:23;;;;;;;57.55;20.55;;;;;;;3.31;97.20;103957.06;5240523;28;20040;-78
2022/01/13 12:20:03;;;;;;;48.35;19.23;;;;;;;3.23;97.13;103966.09;5241304;28;20033;-77
2022/01/13 12:22:43;;;;;;;37.42;19.10;;;;;;;3.30;97.73;103953.47;5239746;28;20033;-78
2022/01/13 12:25:24;;;;;;;46.55;19.20;;;;;;;3.23;97.38;103956.00;5240052;28;20029;-72
2022/01/13 12:27:55;;;;;;;35.70;19.48;;;;;;;3.25;98.59;103964.06;5240478;28;20057;-69
2022/01/13 12:30:30;;;;;;;41.28;19.80;;;;;;;3.22;98.81;103958.88;5239853;28;20481;-72
2022/01/13 12:33:04;;;;;;;38.10;20.27;;;;;;;3.40;99.20;103956.94;5245804;28;20025;-70
2022/01/13 12:35:38;;;;;;;37.80;21.25;;;;;;;3.36;97.91;103949.19;5262352;28;20025;-69
2022/01/13 12:38:13;;;;;;;31.70;19.58;;;;;;;3.44;98.55;103947.31;5246534;28;20032;-70
2022/01/13 12:41:04;;;;;;;39.75;19.88;;;;;;;3.40;98.35;103940.47;5240973;28;20488;-69
2022/01/13 12:46:19;;;;;;;36.50;20.77;;;;;;;3.33;98.17;103931.16;5244834;28;20124;-76
2022/01/13 12:48:53;;;;;;;53.58;23.15;;;;;;;3.38;98.83;103922.44;5246057;28;20033;-76
2022/01/13 12:51:27;;;;;;;38.65;22.55;;;;;;;3.49;99.15;103919.38;5245839;28;20128;-76
2022/01/13 12:53:59;;;;;;;31.80;20.45;;;;;;;3.47;98.72;103913.19;5245413;28;20037;-74
2022/01/13 12:56:30;;;;;;;34.35;21.92;;;;;;;3.60;98.90;103912.72;5246416;28;20033;-71
2022/01/13 12:59:06;;;;;;;34.47;19.90;;;;;;;3.63;99.26;103905.03;5264436;28;20407;-73
2022/01/13 13:01:38;;;;;;;36.83;23.15;;;;;;;3.73;98.81;103901.25;5268420;28;20029;-81
2022/01/13 13:04:12;;;;;;;42.85;23.15;;;;;;;3.68;98.34;103899.88;5269448;28;20032;-78
2022/01/13 13:06:49;;;;;;;49.28;21.98;;;;;;;3.63;98.26;103894.03;5268778;28;20427;-78
2022/01/13 13:09:23;;;;;;;43.05;23.05;;;;;;;3.63;98.38;103899.53;5262176;28;20034;-78
2022/01/13 13:12:01;;;;;;;38.85;22.55;;;;;;;3.66;98.95;103904.69;5258889;28;20082;-78
2022/01/13 13:15:39;;;;;;;36.05;23.67;;;;;;;3.75;99.01;103901.94;5252932;28;20461;-76
2022/01/13 13:17:38;;;;;;;32.45;20.05;;;;;;;3.89;98.34;103907.63;5244248;28;20037;-77
2022/01/13 13:20:26;;;;;;;34.17;19.55;;;;;;;3.78;98.22;103893.34;5247544;28;20112;-76
2022/01/13 13:23:03;;;;;;;36.83;22.77;;;;;;;3.70;98.36;103908.78;5264747;28;20415;-73
2022/01/13 13:25:39;;;;;;;43.45;21.85;;;;;;;3.60;99.23;103902.59;5246199;28;20036;-72
2022/01/13 13:28:20;;;;;;;43.97;22.90;;;;;;;3.75;99.30;103897.28;5251963;28;20144;-73
2022/01/13 13:30:57;;;;;;;39.05;24.00;;;;;;;3.83;99.47;103891.81;5263539;28;20473;-73
2022/01/13 13:33:36;;;;;;;37.35;22.23;;;;;;;3.87;99.08;103892.34;5263749;28;20464;-73
2022/01/13 13:36:14;;;;;;;40.75;20.17;;;;;;;3.77;98.47;103898.00;5246972;28;20029;-73
2022/01/13 13:38:53;;;;;;;39.85;21.55;;;;;;;3.96;98.69;103898.69;5259159;28;20376;-74
2022/01/13 13:41:31;;;;;;;51.40;23.55;;;;;;;3.88;99.02;103889.41;5258661;28;20028;-73
2022/01/13 13:44:03;;;;;;;47.67;20.67;;;;;;;4.38;100.00;103894.91;5264037;28;20461;-81
2022/01/13 13:46:35;;;;;;;39.55;22.52;;;;;;;4.09;100.00;103896.28;5262831;28;20065;-73
2022/01/13 13:49:07;;;;;;;43.85;21.42;;;;;;;4.02;98.60;103890.63;5264315;28;20025;-73
2022/01/13 13:51:38;;;;;;;32.88;21.73;;;;;;;4.07;98.70;103890.13;5261380;28;20032;-73
2022/01/13 13:54:21;;;;;;;72.13;24.20;;;;;;;3.86;97.88;103887.88;5261563;28;20159;-71
2022/01/13 13:56:57;;;;;;;52.65;23.70;;;;;;;3.80;98.75;103881.19;5249650;28;20495;-73
2022/01/13 13:59:36;;;;;;;53.47;34.20;;;;;;;3.90;98.92;103876.38;5264905;28;20385;-73
2022/01/13 14:02:11;;;;;;;43.42;25.48;;;;;;;3.98;99.17;103867.28;5274219;28;20020;-71
2022/01/13 14:04:53;;;;;;;44.55;29.92;;;;;;;4.03;98.77;103864.88;5260671;28;20025;-71
2022/01/13 14:07:31;;;;;;;43.58;27.80;;;;;;;4.04;98.54;103868.47;5260057;28;20022;-73
2022/01/13 14:10:15;;;;;;;55.17;23.67;;;;;;;3.92;98.48;103870.72;5263011;28;20024;-72
2022/01/13 14:13:00;;;;;;;39.85;22.98;;;;;;;4.02;98.94;103865.06;5274460;28;20024;-72
2022/01/13 14:15:37;;;;;;;51.33;26.65;;;;;;;3.94;98.71;103865.94;5271461;28;20030;-73
2022/01/13 14:18:08;;;;;;;61.78;33.45;;;;;;;3.99;98.86;103857.16;5277781;28;20047;-74
2022/01/13 14:20:48;;;;;;;41.85;26.13;;;;;;;4.08;98.59;103853.38;5253424;28;20025;-75
2022/01/13 14:23:24;;;;;;;43.50;22.67;;;;;;;3.99;98.48;103851.66;5255441;28;20030;-77
2022/01/13 14:26:06;;;;;;;37.28;23.63;;;;;;;4.05;98.80;103848.25;5263333;28;20033;-76
2022/01/13 14:28:46;;;;;;;36.88;22.92;;;;;;;4.07;98.20;103849.78;5261526;28;20021;-74
2022/01/13 14:31:17;;;;;;;38.22;24.38;;;;;;;4.05;98.52;103851.84;5268019;28;20061;-75
2022/01/13 14:33:49;;;;;;;74.72;24.25;;;;;;;3.91;98.69;103842.41;5261742;28;20539;-76
2022/01/13 14:36:22;;;;;;;52.63;25.13;;;;;;;3.88;98.89;103853.72;5272187;28;20078;-75
2022/01/13 14:39:01;;;;;;;60.95;24.23;;;;;;;3.77;98.82;103862.31;5283066;28;20031;-76
2022/01/13 14:41:41;;;;;;;35.65;23.98;;;;;;;3.87;99.36;103848.41;5265759;28;20029;-76
2022/01/13 14:44:18;;;;;;;57.75;24.88;;;;;;;3.85;99.37;103855.97;5267200;28;20024;-76
2022/01/13 14:46:56;;;;;;;45.95;25.45;;;;;;;3.92;99.85;103846.88;5263011;28;20400;-76
2022/01/13 14:49:28;;;;;;;43.58;25.45;;;;;;;4.00;99.32;103843.25;5279140;28;20082;-77
2022/01/13 14:52:03;;;;;;;42.75;24.42;;;;;;;4.01;99.09;103849.59;5262560;28;20033;-79
2022/01/13 14:54:35;;;;;;;51.67;20.73;;;;;;;4.54;100.00;103856.38;5261627;28;20090;-76
2022/01/13 14:57:10;;;;;;;52.80;24.02;;;;;;;4.11;100.00;103855.78;5258167;28;20060;-76
2022/01/13 14:59:41;;;;;;;45.10;20.10;;;;;;;4.83;100.00;103854.91;5258977;28;20029;-71
2022/01/13 15:02:13;;;;;;;49.22;28.63;;;;;;;4.44;100.00;103853.84;5256013;28;20381;-79
2022/01/13 15:04:46;;;;;;;60.47;23.42;;;;;;;4.28;99.11;103851.13;5272802;28;20029;-77
2022/01/13 15:07:17;;;;;;;41.00;21.70;;;;;;;4.17;98.13;103844.13;5267371;28;20029;-76
2022/01/13 15:09:49;;;;;;;37.33;21.15;;;;;;;4.21;98.40;103837.22;5266040;28;20033;-76
2022/01/13 15:12:21;;;;;;;36.40;21.38;;;;;;;4.21;98.91;103828.97;5275029;28;20023;-79
2022/01/13 15:14:52;;;;;;;37.45;21.58;;;;;;;4.13;98.82;103821.59;5274406;28;20037;-78
2022/01/13 15:17:23;;;;;;;38.72;22.50;;;;;;;4.16;99.18;103825.91;5266293;28;20445;-78
2022/01/13 15:19:54;;;;;;;36.15;21.98;;;;;;;4.10;99.29;103819.22;5265670;28;20039;-76
2022/01/13 15:22:27;;;;;;;37.35;22.25;;;;;;;4.23;99.50;103821.41;5274756;28;20074;-75
2022/01/13 15:24:59;;;;;;;31.23;19.88;;;;;;;4.11;99.21;103820.06;5282723;28;20021;-78
2022/01/13 15:27:30;;;;;;;33.80;19.58;;;;;;;4.07;99.02;103816.81;5268515;28;20070;-76
2022/01/13 15:30:03;;;;;;;33.72;20.90;;;;;;;4.08;99.15;103823.16;5273156;28;20037;-74
2022/01/13 15:32:34;;;;;;;31.20;20.80;;;;;;;4.18;99.07;103828.47;5258227;28;20116;-74
2022/01/13 15:35:05;;;;;;;28.15;19.13;;;;;;;4.19;98.75;103822.78;5251178;28;20121;-75
2022/01/13 15:37:37;;;;;;;43.35;19.00;;;;;;;4.05;98.67;103820.78;5263543;28;20028;-74
2022/01/13 15:40:13;;;;;;;30.17;18.42;;;;;;;4.08;98.85;103823.16;5262903;28;20027;-74
2022/01/13 15:42:45;;;;;;;;;;;;;;;4.27;99.00;103820.06;5272792;28;20029;-80
2022/01/13 15:45:18;;;;;;;28.27;18.48;;;;;;;4.09;98.58;103813.88;5286170;28;19923;-80
2022/01/13 15:47:49;;;;;;;38.30;17.50;;;;;;;4.06;98.52;103826.06;5274027;28;20055;-81
2022/01/13 15:50:23;;;;;;;26.73;16.88;;;;;;;4.10;99.00;103821.09;5252328;28;20078;-80
2022/01/13 15:52:54;;;;;;;27.48;17.00;;;;;;;4.07;98.83;103824.22;5267039;28;20029;-76
2022/01/13 15:55:25;;;;;;;26.90;18.30;;;;;;;4.08;99.13;103824.03;5274254;28;20024;-76
2022/01/13 15:57:57;;;;;;;32.90;18.63;;;;;;;4.06;99.17;103827.97;5259326;28;20132;-77
2022/01/13 16:00:30;;;;;;;36.63;20.30;;;;;;;4.12;99.71;103821.81;5265875;28;20025;-78
2022/01/13 16:03:02;;;;;;;33.50;20.65;;;;;;;4.06;99.05;103828.81;5268388;28;20044;-76
2022/01/13 16:05:33;;;;;;;30.98;17.55;;;;;;;4.15;99.96;103835.19;5268176;28;20097;-77
2022/01/13 16:08:05;;;;;;;40.25;22.02;;;;;;;4.05;98.82;103826.25;5269000;28;20103;-77
2022/01/13 16:10:36;;;;;;;38.78;19.05;;;;;;;3.99;99.48;103829.69;5257102;28;20108;-77
2022/01/13 16:13:08;;;;;;;29.70;21.35;;;;;;;4.10;99.71;103834.84;5240775;28;20029;-79
2022/01/13 16:15:39;;;;;;;35.92;22.20;;;;;;;4.08;99.75;103829.50;5277804;28;20052;-83
2022/01/13 16:18:13;;;;;;;33.45;19.48;;;;;;;4.04;99.53;103832.78;5271473;28;20025;-76
2022/01/13 16:20:45;;;;;;;35.97;21.73;;;;;;;4.08;99.70;103845.13;5267011;28;20090;-75
2022/01/13 16:23:16;;;;;;;36.58;20.85;;;;;;;4.02;100.00;103846.69;5260784;28;20029;-76
2022/01/13 16:25:47;;;;;;;34.92;21.90;;;;;;;4.03;99.43;103847.53;5253764;28;20483;-75
2022/01/13 16:28:19;;;;;;;34.33;20.08;;;;;;;4.11;99.65;103855.78;5258050;28;20044;-75
2022/01/13 16:30:52;;;;;;;33.55;22.63;;;;;;;4.15;99.65;103854.41;5268247;28;20028;-73
2022/01/13 16:33:24;;;;;;;36.13;22.60;;;;;;;4.15;99.87;103854.41;5259188;28;20038;-75
2022/01/13 16:35:56;;;;;;;35.85;23.65;;;;;;;4.19;99.58;103850.25;5246736;28;20380;-75
2022/01/13 16:38:28;;;;;;;48.22;22.10;;;;;;;4.02;99.33;103846.69;5249459;28;20533;-75
2022/01/13 16:40:59;;;;;;;33.08;20.52;;;;;;;4.14;99.68;103844.44;5269795;28;20034;-77
2022/01/13 16:43:31;;;;;;;34.72;21.58;;;;;;;4.13;99.05;103837.25;5258904;28;20464;-72
2022/01/13 16:46:03;;;;;;;30.83;20.95;;;;;;;4.11;99.24;103842.88;5279345;28;20020;-73
2022/01/13 16:48:34;;;;;;;32.75;21.65;;;;;;;4.12;98.73;103841.88;5268628;28;20056;-73
2022/01/13 16:51:06;;;;;;;46.28;28.83;;;;;;;4.11;99.05;103842.03;5255459;28;20025;-75
2022/01/13 16:53:37;;;;;;;40.42;25.15;;;;;;;4.04;99.40;103839.16;5252306;28;20057;-75
2022/01/13 16:56:08;;;;;;;46.28;27.13;;;;;;;4.09;99.94;103836.75;5258474;28;20035;-75
2022/01/13 16:58:40;;;;;;;41.40;24.05;;;;;;;4.10;100.00;103838.44;5259637;28;20045;-76
2022/01/13 17:01:11;;;;;;;36.97;23.38;;;;;;;4.21;100.00;103833.63;5262679;28;20021;-75
2022/01/13 17:03:42;;;;;;;42.65;24.13;;;;;;;4.19;99.21;103842.03;5279706;28;20042;-75
2022/01/13 17:06:14;;;;;;;37.22;24.42;;;;;;;4.28;98.86;103837.38;5257440;28;20028;-76
2022/01/13 17:08:45;;;;;;;36.05;23.05;;;;;;;4.36;99.09;103835.47;5254056;28;20290;-77
2022/01/13 17:11:17;;;;;;;45.03;25.65;;;;;;;4.27;98.54;103831.03;5266417;28;20469;-78
2022/01/13 17:13:48;;;;;;;36.13;23.13;;;;;;;4.31;97.95;103835.13;5264652;28;20028;-74
2022/01/13 17:16:20;;;;;;;36.60;23.10;;;;;;;4.30;97.89;103838.94;5262586;28;20032;-75
2022/01/13 17:18:51;;;;;;;36.58;22.70;;;;;;;4.30;97.56;103836.19;5253672;28;20041;-75
2022/01/13 17:21:23;;;;;;;35.03;20.65;;;;;;;4.49;98.21;103842.31;5248342;28;20033;-74
2022/01/13 17:23:57;;;;;;;36.95;21.38;;;;;;;4.32;97.54;103844.22;5267170;28;20024;-75
2022/01/13 17:26:28;;;;;;;34.25;22.77;;;;;;;4.33;97.87;103841.31;5278596;28;20375;-73
2022/01/13 17:29:00;;;;;;;45.05;24.88;;;;;;;4.16;97.89;103836.88;5267125;28;20124;-74
